createdAt,value
2017-12-02T00:01:47.604Z,95.87
2017-12-02T00:04:16.563Z,51.67
2017-12-02T00:06:44.780Z,51.37
2017-12-02T00:09:12.977Z,84.00
2017-12-02T00:11:42.127Z,71.80
2017-12-02T00:14:11.143Z,50.97
2017-12-02T00:16:39.360Z,86.37
2017-12-02T00:19:07.560Z,58.77
2017-12-02T00:21:35.780Z,49.53
2017-12-02T00:24:04.026Z,89.90
2017-12-02T00:26:33.014Z,68.77
2017-12-02T00:29:01.260Z,42.37
2017-12-02T00:31:29.508Z,41.80
2017-12-02T00:33:57.777Z,38.57
2017-12-02T00:36:26.006Z,32.90
2017-12-02T00:38:54.199Z,45.93
2017-12-02T00:41:23.202Z,47.40
2017-12-02T00:43:51.416Z,34.17
2017-12-02T00:46:19.655Z,26.67
2017-12-02T00:48:48.676Z,29.70
2017-12-02T00:51:16.934Z,32.90
2017-12-02T00:53:45.171Z,32.10
2017-12-02T00:56:13.394Z,45.20
2017-12-02T00:58:41.607Z,31.50
2017-12-02T01:01:09.893Z,32.07
2017-12-02T01:03:38.108Z,30.90
2017-12-02T01:06:07.126Z,34.07
2017-12-02T01:08:35.456Z,39.67
2017-12-02T01:11:03.792Z,36.33
2017-12-02T01:13:32.031Z,38.50
2017-12-02T01:16:01.096Z,27.80
2017-12-02T01:18:29.344Z,29.73
2017-12-02T01:20:57.590Z,25.83
2017-12-02T01:23:25.786Z,21.03
2017-12-02T01:25:54.132Z,23.00
2017-12-02T01:28:23.130Z,23.70
2017-12-02T01:30:51.407Z,18.40
2017-12-02T01:33:20.427Z,20.33
2017-12-02T01:35:48.645Z,21.13
2017-12-02T01:38:16.906Z,22.70
2017-12-02T01:40:45.187Z,26.50
2017-12-02T01:43:13.429Z,25.00
2017-12-02T01:45:41.621Z,24.23
2017-12-02T01:48:09.866Z,22.10
2017-12-02T01:50:38.064Z,23.47
2017-12-02T01:53:06.282Z,21.40
2017-12-02T01:55:34.503Z,21.13
2017-12-02T01:58:02.765Z,23.67
2017-12-02T02:00:31.062Z,21.67
2017-12-02T02:02:59.281Z,20.30
2017-12-02T02:05:27.501Z,21.67
2017-12-02T02:07:55.780Z,22.27
2017-12-02T02:10:24.020Z,22.10
2017-12-02T02:12:52.262Z,21.40
2017-12-02T02:15:20.455Z,22.30
2017-12-02T02:17:48.679Z,23.97
2017-12-02T02:20:16.901Z,20.80
2017-12-02T02:22:45.130Z,22.83
2017-12-02T02:25:13.354Z,21.03
2017-12-02T02:27:41.617Z,19.60
2017-12-02T02:30:09.887Z,18.63
2017-12-02T02:32:38.076Z,18.87
2017-12-02T02:35:06.315Z,21.83
2017-12-02T02:37:34.557Z,18.70
2017-12-02T02:40:03.537Z,20.50
2017-12-02T02:42:31.774Z,21.47
2017-12-02T02:45:00.012Z,18.93
2017-12-02T02:47:29.014Z,17.40
2017-12-02T02:49:57.995Z,18.00
2017-12-02T02:52:26.990Z,17.27
2017-12-02T02:54:56.052Z,20.47
2017-12-02T02:57:24.272Z,18.80
2017-12-02T02:59:53.311Z,18.97
2017-12-02T03:02:21.591Z,19.60
2017-12-02T03:04:49.911Z,18.23
2017-12-02T03:07:18.900Z,20.87
2017-12-02T03:09:47.990Z,19.10
2017-12-02T03:12:16.304Z,21.60
2017-12-02T03:14:44.548Z,22.10
2017-12-02T03:17:13.590Z,18.37
2017-12-02T03:19:41.827Z,22.37
2017-12-02T03:22:10.832Z,20.90
2017-12-02T03:24:39.067Z,20.43
2017-12-02T03:27:07.287Z,17.70
2017-12-02T03:29:35.525Z,19.90
2017-12-02T03:32:03.774Z,19.47
2017-12-02T03:34:32.012Z,18.27
2017-12-02T03:37:00.215Z,18.80
2017-12-02T03:39:28.424Z,18.60
2017-12-02T03:41:56.659Z,18.07
2017-12-02T03:44:24.918Z,18.50
2017-12-02T03:46:53.142Z,18.77
2017-12-02T03:49:21.393Z,21.00
2017-12-02T03:51:49.622Z,17.47
2017-12-02T03:54:18.635Z,19.13
2017-12-02T03:56:47.652Z,21.90
2017-12-02T03:59:15.913Z,19.73
2017-12-02T04:01:44.193Z,21.20
2017-12-02T04:04:12.466Z,22.37
2017-12-02T04:06:40.720Z,18.93
2017-12-02T04:09:09.738Z,19.00
2017-12-02T04:11:38.917Z,21.87
2017-12-02T04:14:08.337Z,17.47
2017-12-02T04:16:36.675Z,21.87
2017-12-02T04:19:04.957Z,21.23
2017-12-02T04:21:33.297Z,21.17
2017-12-02T04:24:01.596Z,21.60
2017-12-02T04:26:29.975Z,20.80
2017-12-02T04:28:58.976Z,21.77
2017-12-02T04:31:27.254Z,21.83
2017-12-02T04:33:55.494Z,22.67
2017-12-02T04:36:23.695Z,23.73
2017-12-02T04:38:51.919Z,21.23
2017-12-02T04:41:20.131Z,21.20
2017-12-02T04:43:48.394Z,26.30
2017-12-02T04:46:16.663Z,20.37
2017-12-02T04:48:44.949Z,20.20
2017-12-02T04:51:13.206Z,25.80
2017-12-02T04:53:41.446Z,22.17
2017-12-02T04:56:09.711Z,24.57
2017-12-02T04:58:37.949Z,24.83
2017-12-02T05:01:06.148Z,25.00
2017-12-02T05:03:34.391Z,22.10
2017-12-02T05:06:02.587Z,21.50
2017-12-02T05:08:30.783Z,21.50
2017-12-02T05:10:59.029Z,23.03
2017-12-02T05:13:27.268Z,20.90
2017-12-02T05:15:56.259Z,24.13
2017-12-02T05:18:25.238Z,27.73
2017-12-02T05:20:53.529Z,23.57
2017-12-02T05:23:22.546Z,24.33
2017-12-02T05:25:50.784Z,22.57
2017-12-02T05:28:19.044Z,19.60
2017-12-02T05:30:48.154Z,24.53
2017-12-02T05:33:16.399Z,24.17
2017-12-02T05:35:44.642Z,25.83
2017-12-02T05:38:12.852Z,27.57
2017-12-02T05:40:41.122Z,25.23
2017-12-02T05:43:09.317Z,26.47
2017-12-02T05:45:37.541Z,23.40
2017-12-02T05:48:06.595Z,25.57
2017-12-02T05:50:34.806Z,26.17
2017-12-02T05:53:03.039Z,22.20
2017-12-02T05:55:31.339Z,24.80
2017-12-02T05:57:59.714Z,22.87
2017-12-02T06:00:27.938Z,24.93
2017-12-02T06:02:56.178Z,23.23
2017-12-02T06:05:25.140Z,21.92
2017-12-02T06:07:53.383Z,24.53
2017-12-02T06:10:21.966Z,24.03
2017-12-02T06:12:50.235Z,23.35
2017-12-02T06:15:18.495Z,28.65
2017-12-02T06:17:47.456Z,24.47
2017-12-02T06:20:15.710Z,25.77
2017-12-02T06:22:43.934Z,22.87
2017-12-02T06:25:12.969Z,26.00
2017-12-02T06:27:41.179Z,25.70
2017-12-02T06:30:10.411Z,26.07
2017-12-02T06:32:39.401Z,25.27
2017-12-02T06:35:08.377Z,25.17
2017-12-02T06:37:36.617Z,32.40
2017-12-02T06:40:04.818Z,24.37
2017-12-02T06:42:33.030Z,28.33
2017-12-02T06:45:01.974Z,24.63
2017-12-02T06:47:30.217Z,28.17
2017-12-02T06:49:58.470Z,25.23
2017-12-02T06:52:27.456Z,23.17
2017-12-02T06:54:56.415Z,25.93
2017-12-02T06:57:24.646Z,25.70
2017-12-02T06:59:52.823Z,30.97
2017-12-02T07:02:21.080Z,26.00
2017-12-02T07:04:50.062Z,23.00
2017-12-02T07:07:18.338Z,27.03
2017-12-02T07:09:47.324Z,22.42
2017-12-02T07:12:15.654Z,22.07
2017-12-02T07:14:43.943Z,26.73
2017-12-02T07:17:12.226Z,24.40
2017-12-02T07:19:41.255Z,23.47
2017-12-02T07:22:09.479Z,25.57
2017-12-02T07:24:37.663Z,23.43
2017-12-02T07:27:05.889Z,21.00
2017-12-02T07:29:34.535Z,24.50
2017-12-02T07:32:02.760Z,23.75
2017-12-02T07:34:31.690Z,22.70
2017-12-02T07:36:59.972Z,25.13
2017-12-02T07:39:28.192Z,25.13
2017-12-02T07:41:56.406Z,22.53
2017-12-02T07:44:24.628Z,20.63
2017-12-02T07:46:52.801Z,21.30
2017-12-02T07:49:21.002Z,20.20
2017-12-02T07:51:50.014Z,18.20
2017-12-02T07:54:18.254Z,20.20
2017-12-02T07:56:46.486Z,18.93
2017-12-02T07:59:14.809Z,17.47
2017-12-02T08:01:43.009Z,18.50
2017-12-02T08:04:11.263Z,18.40
2017-12-02T08:06:39.598Z,16.77
2017-12-02T08:09:07.806Z,21.47
2017-12-02T08:11:36.033Z,23.47
2017-12-02T08:14:04.210Z,22.27
2017-12-02T08:16:32.383Z,19.20
2017-12-02T08:19:00.547Z,18.30
2017-12-02T08:21:28.726Z,18.73
2017-12-02T08:23:56.965Z,23.47
2017-12-02T08:26:25.220Z,16.17
2017-12-02T08:28:53.427Z,16.10
2017-12-02T08:31:21.603Z,16.53
2017-12-02T08:33:50.728Z,18.17
2017-12-02T08:36:18.962Z,18.63
2017-12-02T08:38:47.165Z,22.13
2017-12-02T08:41:16.184Z,21.23
2017-12-02T08:43:44.369Z,18.97
2017-12-02T08:46:13.864Z,17.87
2017-12-02T08:48:42.107Z,18.90
2017-12-02T08:51:11.086Z,19.13
2017-12-02T08:53:39.262Z,14.90
2017-12-02T08:56:07.422Z,16.90
2017-12-02T08:58:36.378Z,17.40
2017-12-02T09:01:04.566Z,14.20
2017-12-02T09:03:32.780Z,15.53
2017-12-02T09:06:00.998Z,15.03
2017-12-02T09:08:29.179Z,15.87
2017-12-02T09:10:57.364Z,15.10
2017-12-02T09:13:25.537Z,12.93
2017-12-02T09:15:53.694Z,11.53
2017-12-02T09:18:21.877Z,11.40
2017-12-02T09:20:50.053Z,11.23
2017-12-02T09:23:18.266Z,14.33
2017-12-02T09:25:47.202Z,12.47
2017-12-02T09:28:15.414Z,11.13
2017-12-02T09:30:43.606Z,10.33
2017-12-02T09:33:12.586Z,8.97
2017-12-02T09:35:40.754Z,9.60
2017-12-02T09:38:08.938Z,9.13
2017-12-02T09:40:37.891Z,11.03
2017-12-02T09:43:06.062Z,12.63
2017-12-02T09:45:34.233Z,9.60
2017-12-02T09:48:02.393Z,9.43
2017-12-02T09:50:30.593Z,9.47
2017-12-02T09:53:00.857Z,12.40
2017-12-02T09:55:29.802Z,9.20
2017-12-02T09:57:57.982Z,11.10
2017-12-02T10:00:26.165Z,12.80
2017-12-02T10:02:54.359Z,9.63
2017-12-02T10:05:26.190Z,11.73
2017-12-02T10:08:10.491Z,11.27
2017-12-02T10:10:39.983Z,16.40
2017-12-02T10:13:18.353Z,24.80
2017-12-02T10:15:48.900Z,15.03
2017-12-02T10:18:17.776Z,16.00
2017-12-02T10:20:46.042Z,20.40
2017-12-02T10:23:14.685Z,20.63
2017-12-02T10:26:04.449Z,21.50
2017-12-02T10:29:07.961Z,22.67
2017-12-02T10:31:58.889Z,19.83
2017-12-02T10:35:06.016Z,20.27
2017-12-02T10:40:35.708Z,21.27
2017-12-02T10:43:04.693Z,18.10
2017-12-02T10:45:35.328Z,16.20
2017-12-02T10:48:06.437Z,16.93
2017-12-02T10:50:35.575Z,15.50
2017-12-02T10:53:04.522Z,15.47
2017-12-02T10:55:32.755Z,13.90
2017-12-02T10:58:01.729Z,14.17
2017-12-02T11:00:31.155Z,13.73
2017-12-02T11:02:59.337Z,13.07
2017-12-02T11:05:27.523Z,14.07
2017-12-02T11:07:55.697Z,12.60
2017-12-02T11:10:23.886Z,14.23
2017-12-02T11:12:52.095Z,14.37
2017-12-02T11:15:20.295Z,12.57
2017-12-02T11:17:49.250Z,12.70
2017-12-02T11:20:17.442Z,20.90
2017-12-02T11:22:45.671Z,22.60
2017-12-02T11:25:13.886Z,24.77
2017-12-02T11:27:42.092Z,22.60
2017-12-02T11:30:11.163Z,22.60
2017-12-02T11:32:39.351Z,24.00
2017-12-02T11:35:08.295Z,23.10
2017-12-02T11:37:36.483Z,21.30
2017-12-02T11:40:04.757Z,24.40
2017-12-02T11:42:32.946Z,25.67
2017-12-02T11:45:01.221Z,25.40
2017-12-02T11:47:29.484Z,26.83
2017-12-02T11:49:57.662Z,27.00
2017-12-02T11:52:25.868Z,25.67
2017-12-02T11:54:54.829Z,25.47
2017-12-02T11:57:23.016Z,24.00
2017-12-02T11:59:51.228Z,24.57
2017-12-02T12:02:20.222Z,23.30
2017-12-02T12:04:49.176Z,23.57
2017-12-02T12:07:17.411Z,22.40
2017-12-02T12:09:45.678Z,24.00
2017-12-02T12:12:13.886Z,22.97
2017-12-02T12:14:42.084Z,23.73
2017-12-02T12:17:10.309Z,23.40
2017-12-02T12:19:38.535Z,25.43
2017-12-02T12:22:06.749Z,24.03
2017-12-02T12:24:34.980Z,24.73
2017-12-02T12:27:03.188Z,23.40
2017-12-02T12:29:32.163Z,23.87
2017-12-02T12:32:00.361Z,24.03
2017-12-02T12:34:29.315Z,22.40
2017-12-02T12:36:57.573Z,24.80
2017-12-02T12:39:25.754Z,23.60
2017-12-02T12:41:53.954Z,26.20
2017-12-02T12:44:22.160Z,25.57
2017-12-02T12:46:50.378Z,24.37
2017-12-02T12:49:18.557Z,23.63
2017-12-02T12:51:46.774Z,23.53
2017-12-02T12:54:15.802Z,24.00
2017-12-02T12:56:43.993Z,22.97
2017-12-02T12:59:12.221Z,22.93
2017-12-02T13:01:41.167Z,23.40
2017-12-02T13:04:09.411Z,24.03
2017-12-02T13:06:37.599Z,23.97
2017-12-02T13:09:05.830Z,23.53
2017-12-02T13:11:34.797Z,22.50
2017-12-02T13:14:02.976Z,22.37
2017-12-02T13:16:31.168Z,22.70
2017-12-02T13:19:00.137Z,21.23
2017-12-02T13:21:28.335Z,21.00
2017-12-02T13:23:56.544Z,26.67
2017-12-02T13:26:24.728Z,21.83
2017-12-02T13:28:52.954Z,22.30
2017-12-02T13:31:21.162Z,23.40
2017-12-02T13:33:49.344Z,22.83
2017-12-02T13:36:17.544Z,21.83
2017-12-02T13:38:45.815Z,20.47
2017-12-02T13:41:14.072Z,22.57
2017-12-02T13:43:42.265Z,20.80
2017-12-02T13:46:10.475Z,22.20
2017-12-02T13:48:38.708Z,22.17
2017-12-02T13:51:06.939Z,21.83
2017-12-02T13:53:35.191Z,22.77
2017-12-02T13:56:03.380Z,23.37
2017-12-02T13:58:31.599Z,22.50
2017-12-02T14:00:59.794Z,22.23
2017-12-02T14:03:28.072Z,20.97
2017-12-02T14:05:56.303Z,23.07
2017-12-02T14:08:25.277Z,21.97
2017-12-02T14:10:53.489Z,20.60
2017-12-02T14:13:21.717Z,22.00
2017-12-02T14:15:49.907Z,21.00
2017-12-02T14:18:18.110Z,22.77
2017-12-02T14:20:47.057Z,24.90
2017-12-02T14:23:15.228Z,22.90
2017-12-02T14:25:43.424Z,23.50
2017-12-02T14:28:11.611Z,21.70
2017-12-02T14:30:40.585Z,22.20
2017-12-02T14:33:08.792Z,23.63
2017-12-02T14:35:37.992Z,24.63
2017-12-02T14:38:06.924Z,22.33
2017-12-02T14:40:35.119Z,22.10
2017-12-02T14:43:03.300Z,20.63
2017-12-02T14:45:31.488Z,21.90
2017-12-02T14:47:59.679Z,19.90
2017-12-02T14:50:28.606Z,20.20
2017-12-02T14:52:56.854Z,20.60
2017-12-02T14:55:25.042Z,19.80
2017-12-02T14:57:53.231Z,21.30
2017-12-02T15:00:21.403Z,21.40
2017-12-02T15:02:49.630Z,20.10
2017-12-02T15:05:18.637Z,22.10
2017-12-02T15:07:47.805Z,21.33
2017-12-02T15:10:16.027Z,20.80
2017-12-02T15:12:44.243Z,19.40
2017-12-02T15:15:12.554Z,22.90
2017-12-02T15:17:41.637Z,22.40
2017-12-02T15:20:09.995Z,19.33
2017-12-02T15:22:38.423Z,21.17
2017-12-02T15:25:07.383Z,23.50
2017-12-02T15:27:35.614Z,24.40
2017-12-02T15:30:04.666Z,28.70
2017-12-02T15:32:32.843Z,29.50
2017-12-02T15:35:01.058Z,24.17
2017-12-02T15:37:29.381Z,32.80
2017-12-02T15:39:57.594Z,29.80
2017-12-02T15:42:26.558Z,27.87
2017-12-02T15:44:54.773Z,30.10
2017-12-02T15:47:22.997Z,30.30
2017-12-02T15:49:52.349Z,27.70
2017-12-02T15:52:21.310Z,29.23
2017-12-02T15:54:50.476Z,28.33
2017-12-02T15:57:18.661Z,31.00
2017-12-02T15:59:46.855Z,29.30
2017-12-02T16:02:15.052Z,33.13
2017-12-02T16:04:44.030Z,32.40
2017-12-02T16:07:13.156Z,35.73
2017-12-02T16:09:41.513Z,35.57
2017-12-02T16:12:10.472Z,34.33
2017-12-02T16:14:38.684Z,35.67
2017-12-02T16:17:07.745Z,30.03
2017-12-02T16:19:35.950Z,32.67
2017-12-02T16:22:04.957Z,33.13
2017-12-02T16:24:33.987Z,31.73
2017-12-02T16:27:02.237Z,31.70
2017-12-02T16:29:30.504Z,37.40
2017-12-02T16:31:58.808Z,33.90
2017-12-02T16:34:27.058Z,35.53
2017-12-02T16:36:56.129Z,39.13
2017-12-02T16:39:24.457Z,43.37
2017-12-02T16:41:52.720Z,44.73
2017-12-02T16:44:20.962Z,90.53
2017-12-02T16:46:49.190Z,157.17
2017-12-02T16:49:17.466Z,99.93
2017-12-02T16:51:45.667Z,111.10
2017-12-02T16:54:13.948Z,144.73
2017-12-02T16:56:42.206Z,115.30
2017-12-02T16:59:10.486Z,76.40
2017-12-02T17:01:38.683Z,70.23
2017-12-02T17:04:06.943Z,71.13
2017-12-02T17:06:35.145Z,57.43
2017-12-02T17:09:03.404Z,54.63
2017-12-02T17:11:31.595Z,54.80
2017-12-02T17:14:00.581Z,73.53
2017-12-02T17:16:28.801Z,72.00
2017-12-02T17:18:56.989Z,61.53
2017-12-02T17:21:25.242Z,56.37
2017-12-02T17:23:54.220Z,51.23
2017-12-02T17:26:23.281Z,50.70
2017-12-02T17:28:51.569Z,42.33
2017-12-02T17:31:19.805Z,51.70
2017-12-02T17:33:48.040Z,50.30
2017-12-02T17:36:17.093Z,49.33
2017-12-02T17:38:45.304Z,50.50
2017-12-02T17:41:13.552Z,44.97
2017-12-02T17:43:42.554Z,41.03
2017-12-02T17:46:10.834Z,42.53
2017-12-02T17:48:39.075Z,50.70
2017-12-02T17:51:07.354Z,45.87
2017-12-02T17:53:35.569Z,48.70
2017-12-02T17:56:03.806Z,48.33
2017-12-02T17:58:32.074Z,45.70
2017-12-02T18:01:00.314Z,42.00
2017-12-02T18:03:28.534Z,43.27
2017-12-02T18:05:56.724Z,43.00
2017-12-02T18:08:24.945Z,42.00
2017-12-02T18:10:53.983Z,40.43
2017-12-02T18:13:22.238Z,44.63
2017-12-02T18:15:52.952Z,46.30
2017-12-02T18:18:22.023Z,45.83
2017-12-02T18:20:50.261Z,48.37
2017-12-02T18:23:18.489Z,44.57
2017-12-02T18:25:46.663Z,42.63
2017-12-02T18:28:14.884Z,42.03
2017-12-02T18:30:43.123Z,41.07
2017-12-02T18:33:12.112Z,45.20
2017-12-02T18:35:41.118Z,41.37
2017-12-02T18:38:10.067Z,37.17
2017-12-02T18:40:38.286Z,47.03
2017-12-02T18:43:07.274Z,52.50
2017-12-02T18:45:36.267Z,46.10
2017-12-02T18:48:05.264Z,52.83
2017-12-02T18:50:34.384Z,58.80
2017-12-02T18:53:02.594Z,45.20
2017-12-02T18:55:30.838Z,43.93
2017-12-02T18:57:59.089Z,45.60
2017-12-02T19:00:28.042Z,47.00
2017-12-02T19:02:56.260Z,49.87
2017-12-02T19:05:25.193Z,45.33
2017-12-02T19:07:53.402Z,43.70
2017-12-02T19:10:21.630Z,128.90
2017-12-02T19:12:49.899Z,107.47
2017-12-02T19:15:18.140Z,104.20
2017-12-02T19:17:46.440Z,97.43
2017-12-02T19:20:14.636Z,48.40
2017-12-02T19:22:42.878Z,46.30
2017-12-02T19:25:11.857Z,46.23
2017-12-02T19:27:40.057Z,82.30
2017-12-02T19:30:09.032Z,59.47
2017-12-02T19:32:37.211Z,52.13
2017-12-02T19:35:06.216Z,129.47
2017-12-02T19:37:35.168Z,58.10
2017-12-02T19:40:03.399Z,48.30
2017-12-02T19:42:31.576Z,64.17
2017-12-02T19:44:59.785Z,59.73
2017-12-02T19:47:27.955Z,58.50
2017-12-02T19:49:56.164Z,59.83
2017-12-02T19:52:24.342Z,47.07
2017-12-02T19:54:53.399Z,63.63
2017-12-02T19:57:21.650Z,49.80
2017-12-02T19:59:49.871Z,50.53
2017-12-02T20:02:18.102Z,59.20
2017-12-02T20:04:46.328Z,46.57
2017-12-02T20:07:14.563Z,135.50
2017-12-02T20:09:42.827Z,111.47
2017-12-02T20:12:11.044Z,69.97
2017-12-02T20:14:39.241Z,77.87
2017-12-02T20:17:08.237Z,89.73
2017-12-02T20:19:37.199Z,71.20
2017-12-02T20:22:05.402Z,81.73
2017-12-02T20:24:33.601Z,64.60
2017-12-02T20:27:01.844Z,54.40
2017-12-02T20:29:30.038Z,59.30
2017-12-02T20:31:58.966Z,58.57
2017-12-02T20:34:27.138Z,73.93
2017-12-02T20:36:55.328Z,54.80
2017-12-02T20:39:23.526Z,43.77
2017-12-02T20:41:51.731Z,52.17
2017-12-02T20:44:20.701Z,44.58
2017-12-02T20:46:48.862Z,61.83
2017-12-02T20:49:17.035Z,54.27
2017-12-02T20:51:45.213Z,58.97
2017-12-02T20:54:14.218Z,55.70
2017-12-02T20:56:42.389Z,44.37
2017-12-02T20:59:10.545Z,43.27
2017-12-02T21:01:38.715Z,43.17
2017-12-02T21:04:06.901Z,42.83
2017-12-02T21:06:35.066Z,42.57
2017-12-02T21:09:03.247Z,89.80
2017-12-02T21:11:31.451Z,111.70
2017-12-02T21:13:59.691Z,100.53
2017-12-02T21:16:27.899Z,174.97
2017-12-02T21:18:56.126Z,61.27
2017-12-02T21:21:24.312Z,56.73
2017-12-02T21:23:52.473Z,58.53
2017-12-02T21:26:20.630Z,53.80
2017-12-02T21:28:49.595Z,56.30
2017-12-02T21:31:17.773Z,59.13
2017-12-02T21:33:46.718Z,55.27
2017-12-02T21:36:14.908Z,49.80
2017-12-02T21:38:43.079Z,49.35
2017-12-02T21:41:11.289Z,50.03
2017-12-02T21:43:39.507Z,49.63
2017-12-02T21:46:07.761Z,47.80
2017-12-02T21:48:36.717Z,44.95
2017-12-02T21:51:04.927Z,47.20
2017-12-02T21:53:33.868Z,49.30
2017-12-02T21:56:02.038Z,62.10
2017-12-02T21:58:30.272Z,67.72
2017-12-02T22:00:58.464Z,71.30
2017-12-02T22:03:26.626Z,58.87
2017-12-02T22:05:54.822Z,67.57
2017-12-02T22:08:22.991Z,57.25
2017-12-02T22:10:51.222Z,71.85
2017-12-02T22:13:19.943Z,70.75
2017-12-02T22:15:48.179Z,59.00
2017-12-02T22:18:16.442Z,60.28
2017-12-02T22:20:44.636Z,56.25
2017-12-02T22:23:12.821Z,51.45
2017-12-02T22:25:41.775Z,50.90
2017-12-02T22:28:09.996Z,52.17
2017-12-02T22:30:38.976Z,52.67
2017-12-02T22:33:07.996Z,54.17
2017-12-02T22:35:36.259Z,60.25
2017-12-02T22:38:05.250Z,69.85
2017-12-02T22:40:34.234Z,66.05
2017-12-02T22:43:02.450Z,62.30
2017-12-02T22:45:30.676Z,70.55
2017-12-02T22:47:58.863Z,78.90
2017-12-02T22:50:27.832Z,60.75
2017-12-02T22:52:56.055Z,74.15
2017-12-02T22:55:24.242Z,82.80
2017-12-02T22:57:52.431Z,80.25
2017-12-02T23:00:20.684Z,69.22
2017-12-02T23:02:48.930Z,67.78
2017-12-02T23:05:17.109Z,65.20
2017-12-02T23:07:46.115Z,62.58
2017-12-02T23:10:15.112Z,62.67
2017-12-02T23:12:44.079Z,55.83
2017-12-02T23:15:12.291Z,64.97
2017-12-02T23:17:40.500Z,54.65
2017-12-02T23:20:08.682Z,59.15
2017-12-02T23:22:36.907Z,56.05
2017-12-02T23:25:05.102Z,56.95
2017-12-02T23:27:33.302Z,60.38
2017-12-02T23:30:01.601Z,63.35
2017-12-02T23:32:29.807Z,66.47
2017-12-02T23:34:58.002Z,78.25
2017-12-02T23:37:26.195Z,76.97
2017-12-02T23:39:54.379Z,61.75
2017-12-02T23:42:22.626Z,65.45
2017-12-02T23:44:51.601Z,55.80
2017-12-02T23:47:20.557Z,54.60
2017-12-02T23:49:48.744Z,56.90
2017-12-02T23:52:16.943Z,56.28
2017-12-02T23:54:45.918Z,59.90
2017-12-02T23:57:14.175Z,55.58
2017-12-02T23:59:42.557Z,57.42
